Time;durP1;ratioP1;P1;durP2;ratioP2;P2;SDS_P1;SDS_P2;PMS_P1;PMS_P2;Temp;Humidity;BMP_temperature;BMP_pressure;BME280_temperature;BME280_humidity;BME280_pressure;Samples;Min_cycle;Max_cycle;Signal;HPM_P1;HPM_P2
2023/03/24 00:00:23;;;;;;;4.05;2.85;;;;;;;11.04;100.00;97472.69;4159401;28;20044;-71
2023/03/24 00:02:23;;;;;;;3.70;2.80;;;;;;;11.15;100.00;97462.31;4158770;28;20034;-71
2023/03/24 00:04:24;;;;;;;3.13;2.83;;;;;;;11.18;100.00;97461.53;4158678;28;20050;-71
2023/03/24 00:06:25;;;;;;;3.90;3.20;;;;;;;11.25;100.00;97462.28;4159220;28;20504;-71
2023/03/24 00:08:29;;;;;;;4.15;3.00;;;;;;;11.27;100.00;97467.41;4159306;28;20136;-71
2023/03/24 00:10:33;;;;;;;4.43;3.33;;;;;;;11.29;100.00;97472.53;4158275;28;20056;-71
2023/03/24 00:12:37;;;;;;;3.92;3.38;;;;;;;11.36;100.00;97461.41;4158317;28;20041;-71
2023/03/24 00:14:37;;;;;;;4.00;3.20;;;;;;;11.44;100.00;97463.69;4158959;28;20088;-71
2023/03/24 00:16:41;;;;;;;4.78;3.05;;;;;;;11.52;99.46;97447.81;4159855;28;20033;-71
2023/03/24 00:18:41;;;;;;;5.10;2.95;;;;;;;11.60;99.38;97457.63;4158775;28;20056;-71
2023/03/24 00:20:44;;;;;;;5.22;3.08;;;;;;;11.67;98.64;97454.00;4158398;28;20064;-71
2023/03/24 00:22:48;;;;;;;4.78;3.10;;;;;;;11.71;98.03;97455.53;4158381;28;20413;-71
2023/03/24 00:24:49;;;;;;;3.88;2.80;;;;;;;11.66;98.21;97446.88;4158919;28;20048;-71
2023/03/24 00:26:50;;;;;;;7.38;3.22;;;;;;;11.70;98.03;97442.88;4158910;28;20048;-71
2023/03/24 00:28:51;;;;;;;4.43;2.83;;;;;;;11.77;97.61;97434.50;4159218;28;20050;-71
2023/03/24 00:30:51;;;;;;;3.92;3.08;;;;;;;11.74;97.60;97446.41;4158612;28;20361;-71
2023/03/24 00:32:52;;;;;;;4.60;3.42;;;;;;;11.70;97.96;97450.41;4158021;28;20073;-71
2023/03/24 00:34:53;;;;;;;4.80;2.88;;;;;;;11.70;98.26;97453.97;4158873;28;20045;-71
2023/03/24 00:36:53;;;;;;;3.55;2.92;;;;;;;11.71;98.09;97446.44;4158381;28;20029;-71
2023/03/24 00:38:55;;;;;;;3.80;2.63;;;;;;;11.76;98.29;97452.34;4159059;28;20110;-71
2023/03/24 00:40:56;;;;;;;5.50;2.95;;;;;;;11.79;98.05;97453.50;4158569;28;20057;-71
2023/03/24 00:42:58;;;;;;;4.25;3.05;;;;;;;11.75;97.85;97436.91;4157778;28;20040;-71
2023/03/24 00:44:58;;;;;;;5.43;3.25;;;;;;;11.78;97.34;97458.25;4158414;28;20044;-71
2023/03/24 00:46:58;;;;;;;5.00;3.08;;;;;;;11.80;97.15;97430.16;4158908;28;20037;-71
2023/03/24 00:49:05;;;;;;;5.30;3.22;;;;;;;11.80;98.27;97438.47;4158399;28;20099;-71
2023/03/24 00:51:06;;;;;;;3.92;2.90;;;;;;;11.87;98.28;97443.16;4158795;28;20049;-71
2023/03/24 00:53:08;;;;;;;4.22;2.95;;;;;;;11.82;98.52;97427.75;4157960;28;20489;-71
2023/03/24 00:55:14;;;;;;;3.90;3.10;;;;;;;11.89;98.53;97430.44;4158456;28;20144;-71
2023/03/24 00:57:21;;;;;;;4.18;2.72;;;;;;;11.87;98.13;97432.06;4158624;28;20045;-71
2023/03/24 00:59:22;;;;;;;8.85;3.72;;;;;;;11.85;98.38;97431.69;4158553;28;20041;-71
2023/03/24 01:01:28;;;;;;;4.82;3.20;;;;;;;11.85;98.60;97417.84;4158137;28;20041;-71
2023/03/24 01:03:28;;;;;;;4.22;2.85;;;;;;;11.83;98.93;97423.78;4157340;28;20041;-71
2023/03/24 01:05:30;;;;;;;4.07;3.05;;;;;;;11.80;99.41;97413.53;4158653;28;20045;-71
2023/03/24 01:07:30;;;;;;;5.32;2.78;;;;;;;11.74;100.00;97418.69;4158225;28;20038;-71
2023/03/24 01:09:30;;;;;;;4.45;2.47;;;;;;;11.74;99.99;97415.13;4157948;28;20106;-71
2023/03/24 01:11:37;;;;;;;3.75;3.00;;;;;;;11.71;99.55;97408.44;4158326;28;20050;-71
2023/03/24 01:13:39;;;;;;;3.78;2.92;;;;;;;11.67;100.00;97413.25;4157931;28;20042;-71
2023/03/24 01:15:40;;;;;;;4.03;2.47;;;;;;;11.70;100.00;97426.25;4157981;28;20042;-71
2023/03/24 01:17:41;;;;;;;5.45;2.63;;;;;;;11.69;100.00;97412.81;4157830;28;20610;-71
2023/03/24 01:19:41;;;;;;;2.92;2.63;;;;;;;11.64;100.00;97422.34;4158073;28;20060;-71
2023/03/24 01:21:42;;;;;;;3.90;2.40;;;;;;;11.65;100.00;97417.59;4158024;28;20441;-71
2023/03/24 01:23:42;;;;;;;3.65;2.63;;;;;;;11.56;100.00;97418.06;4157037;28;20041;-71
2023/03/24 01:25:47;;;;;;;5.53;2.70;;;;;;;11.51;100.00;97404.69;4157681;28;20073;-71
2023/03/24 01:27:48;;;;;;;4.95;2.90;;;;;;;11.50;100.00;97419.72;4157618;28;20075;-71
2023/03/24 01:29:49;;;;;;;4.15;2.78;;;;;;;11.42;100.00;97412.66;4158298;28;20435;-71
2023/03/24 01:31:49;;;;;;;5.45;2.70;;;;;;;11.39;100.00;97414.28;4156789;28;20049;-71
2023/03/24 01:33:50;;;;;;;4.55;3.53;;;;;;;11.34;100.00;97409.19;4157185;28;20136;-71
2023/03/24 01:35:50;;;;;;;3.60;2.70;;;;;;;11.29;100.00;97406.06;4157998;28;20048;-71
2023/03/24 01:37:51;;;;;;;4.05;2.78;;;;;;;11.26;100.00;97399.38;4157847;28;20171;-71
2023/03/24 01:39:52;;;;;;;3.47;3.03;;;;;;;11.22;100.00;97382.78;4157791;28;20045;-71
2023/03/24 01:41:52;;;;;;;4.85;2.90;;;;;;;11.17;100.00;97383.22;4157833;28;20046;-71
2023/03/24 01:43:53;;;;;;;2.85;2.17;;;;;;;11.14;100.00;97381.25;4157426;28;20075;-71
2023/03/24 01:45:59;;;;;;;3.97;2.60;;;;;;;11.05;100.00;97377.38;4157602;28;20049;-71
2023/03/24 01:48:00;;;;;;;3.63;2.78;;;;;;;11.05;100.00;97394.78;4156174;28;20049;-71
2023/03/24 01:50:01;;;;;;;5.22;3.05;;;;;;;11.04;100.00;97384.91;4157505;28;20095;-71
2023/03/24 01:52:06;;;;;;;3.60;2.60;;;;;;;11.03;100.00;97377.03;4157959;28;20136;-71
2023/03/24 01:54:13;;;;;;;3.35;2.70;;;;;;;11.03;100.00;97377.03;4157773;28;20442;-71
2023/03/24 01:56:13;;;;;;;3.13;2.60;;;;;;;11.03;100.00;97361.19;4158021;28;20025;-71
2023/03/24 01:58:15;;;;;;;4.35;2.90;;;;;;;11.02;100.00;97367.94;4157324;28;20022;-71
2023/03/24 02:00:20;;;;;;;4.05;3.00;;;;;;;11.04;100.00;97365.53;4157773;28;20434;-71
2023/03/24 02:02:23;;;;;;;4.43;2.85;;;;;;;10.98;100.00;97365.19;4157316;28;20639;-71
2023/03/24 02:04:24;;;;;;;4.75;2.95;;;;;;;10.97;100.00;97366.38;4157573;28;20042;-71
2023/03/24 02:06:25;;;;;;;3.83;2.70;;;;;;;10.93;100.00;97349.03;4158074;28;20029;-71
2023/03/24 02:08:41;;;;;;;3.83;2.72;;;;;;;10.92;100.00;97354.94;4157643;28;20139;-72
2023/03/24 02:10:42;;;;;;;5.20;2.80;;;;;;;10.90;100.00;97338.75;4157902;28;20136;-71
2023/03/24 02:12:44;;;;;;;3.03;2.63;;;;;;;10.88;100.00;97334.81;4157151;28;20080;-72
2023/03/24 02:14:45;;;;;;;4.18;2.50;;;;;;;10.85;100.00;97341.97;4157127;28;20315;-72
2023/03/24 02:17:13;;;;;;;3.75;2.45;;;;;;;10.86;100.00;97343.53;4157569;28;20056;-71
2023/03/24 02:19:22;;;;;;;3.05;2.58;;;;;;;10.89;100.00;97353.78;4157466;28;20378;-71
2023/03/24 02:21:34;;;;;;;3.65;2.85;;;;;;;10.89;100.00;97351.03;4157507;28;20175;-71
2023/03/24 02:23:40;;;;;;;3.40;2.50;;;;;;;10.96;100.00;97341.88;4156785;28;20045;-72
2023/03/24 02:25:50;;;;;;;3.20;2.45;;;;;;;10.97;100.00;97338.69;4157560;28;20057;-71
2023/03/24 02:28:05;;;;;;;3.55;2.65;;;;;;;10.95;100.00;97332.78;4157325;28;20069;-71
2023/03/24 02:30:32;;;;;;;3.97;3.10;;;;;;;10.96;100.00;97334.34;4156865;28;20436;-71
2023/03/24 02:32:44;;;;;;;4.78;3.17;;;;;;;10.96;100.00;97328.81;4155732;28;20049;-71
2023/03/24 02:35:21;;;;;;;7.22;3.35;;;;;;;10.98;100.00;97320.09;4157392;28;20387;-71
2023/03/24 02:37:28;;;;;;;5.70;2.88;;;;;;;10.92;100.00;97308.72;4157576;28;20041;-71
2023/03/24 02:39:40;;;;;;;3.42;3.10;;;;;;;10.92;100.00;97303.19;4156930;28;20040;-71
2023/03/24 02:41:56;;;;;;;3.90;3.25;;;;;;;10.94;100.00;97306.31;4157754;28;20049;-71
2023/03/24 02:44:10;;;;;;;4.65;3.10;;;;;;;10.91;100.00;97306.31;4158067;28;20029;-71
2023/03/24 02:46:16;;;;;;;4.82;3.38;;;;;;;10.95;100.00;97307.09;4160408;28;20048;-71
2023/03/24 02:49:05;;;;;;;5.03;3.60;;;;;;;10.94;100.00;97308.31;4160156;28;20025;-71
2023/03/24 02:51:31;;;;;;;4.40;3.65;;;;;;;10.96;100.00;97283.75;4150213;28;20048;-71
2023/03/24 02:53:39;;;;;;;4.72;3.40;;;;;;;10.91;100.00;97279.44;4160013;28;20045;-71
2023/03/24 02:55:49;;;;;;;4.55;3.25;;;;;;;10.95;100.00;97274.69;4160033;28;20030;-71
2023/03/24 02:58:07;;;;;;;5.97;3.45;;;;;;;10.95;100.00;97269.13;4160396;28;20045;-71
2023/03/24 03:00:15;;;;;;;5.97;4.00;;;;;;;10.93;100.00;97268.00;4159454;28;20061;-71
2023/03/24 03:02:22;;;;;;;6.28;3.50;;;;;;;10.92;100.00;97266.38;4160380;28;20124;-71
2023/03/24 03:04:32;;;;;;;4.20;3.70;;;;;;;10.89;100.00;97259.69;4159970;28;20034;-71
2023/03/24 03:06:38;;;;;;;5.30;3.65;;;;;;;10.91;100.00;97256.53;4159756;28;20532;-71
2023/03/24 03:08:40;;;;;;;5.13;3.75;;;;;;;10.91;100.00;97253.75;4160160;28;20501;-71
2023/03/24 03:10:44;;;;;;;4.55;3.65;;;;;;;10.90;100.00;97258.50;4159974;28;20045;-72
2023/03/24 03:12:50;;;;;;;4.85;3.47;;;;;;;10.91;100.00;97251.00;4159212;28;20481;-71
2023/03/24 03:14:55;;;;;;;4.25;3.17;;;;;;;10.93;100.00;97238.34;4160332;28;20136;-71
2023/03/24 03:17:03;;;;;;;4.32;3.22;;;;;;;10.96;100.00;97242.25;4160465;28;20045;-71
2023/03/24 03:19:16;;;;;;;4.18;3.22;;;;;;;10.93;100.00;97226.47;4159982;28;20385;-71
2023/03/24 03:21:22;;;;;;;6.45;3.22;;;;;;;10.91;100.00;97223.31;4158723;28;20065;-71
2023/03/24 03:23:28;;;;;;;4.00;3.10;;;;;;;10.88;100.00;97224.16;4159345;28;20436;-71
2023/03/24 03:25:35;;;;;;;4.57;3.15;;;;;;;10.89;100.00;97220.19;4159753;28;20050;-71
2023/03/24 03:27:40;;;;;;;3.58;2.97;;;;;;;10.83;100.00;97224.56;4159555;28;20065;-71
2023/03/24 03:29:45;;;;;;;3.38;2.72;;;;;;;10.84;100.00;97215.06;4159039;28;20069;-71
2023/03/24 03:31:52;;;;;;;4.65;3.03;;;;;;;10.83;100.00;97214.28;4159980;28;20045;-71
2023/03/24 03:34:03;;;;;;;3.30;2.65;;;;;;;10.82;100.00;97218.25;4159557;28;20053;-71
2023/03/24 03:36:14;;;;;;;3.00;2.40;;;;;;;10.84;100.00;97204.00;4158250;28;20038;-71
2023/03/24 03:38:21;;;;;;;3.05;2.35;;;;;;;10.94;100.00;97214.22;4159356;28;20044;-71
2023/03/24 03:40:44;;;;;;;3.53;2.20;;;;;;;10.99;100.00;97194.38;4159596;28;20650;-71
2023/03/24 03:42:45;;;;;;;3.67;2.55;;;;;;;11.06;100.00;97194.28;4158403;28;20038;-71
2023/03/24 03:44:46;;;;;;;3.53;2.30;;;;;;;11.09;100.00;97195.44;4159764;28;20489;-71
2023/03/24 03:46:46;;;;;;;5.35;2.10;;;;;;;11.05;100.00;97181.66;4159851;28;20072;-71
2023/03/24 03:48:47;;;;;;;4.03;2.60;;;;;;;11.09;100.00;97187.97;4159419;28;20466;-71
2023/03/24 03:50:47;;;;;;;3.05;2.67;;;;;;;11.10;100.00;97178.44;4159557;28;20049;-71
2023/03/24 03:52:49;;;;;;;3.25;2.40;;;;;;;11.16;100.00;97181.53;4159319;28;20091;-71
2023/03/24 03:54:50;;;;;;;4.00;2.70;;;;;;;11.17;100.00;97183.09;4158473;28;20042;-71
2023/03/24 03:56:51;;;;;;;3.55;2.70;;;;;;;11.19;100.00;97197.34;4158815;28;20411;-71
2023/03/24 03:58:52;;;;;;;3.30;2.55;;;;;;;11.17;100.00;97191.41;4160103;28;20049;-71
2023/03/24 04:00:54;;;;;;;3.50;2.42;;;;;;;11.17;100.00;97197.75;4159005;28;20060;-71
2023/03/24 04:03:13;;;;;;;3.95;2.65;;;;;;;11.18;100.00;97195.78;4158629;28;20061;-71
2023/03/24 04:05:29;;;;;;;3.75;2.42;;;;;;;11.21;100.00;97197.69;4159664;28;20061;-71
2023/03/24 04:07:39;;;;;;;4.00;2.88;;;;;;;11.27;100.00;97190.50;4159250;28;20448;-71
2023/03/24 04:10:04;;;;;;;3.85;3.03;;;;;;;11.17;100.00;97186.69;4159196;28;20116;-71
2023/03/24 04:12:30;;;;;;;3.20;2.38;;;;;;;11.19;100.00;97189.81;4158722;28;20049;-71
2023/03/24 04:15:05;;;;;;;5.18;3.13;;;;;;;11.16;100.00;97181.53;4158073;28;20041;-71
2023/03/24 04:17:36;;;;;;;3.60;2.67;;;;;;;11.17;100.00;97185.88;4157976;28;20091;-71
2023/03/24 04:20:09;;;;;;;3.55;2.80;;;;;;;11.14;100.00;97183.94;4159287;28;20037;-71
2023/03/24 04:22:31;;;;;;;5.00;3.13;;;;;;;11.17;100.00;97194.16;4158411;28;20490;-71
2023/03/24 04:24:55;;;;;;;4.32;3.00;;;;;;;11.13;100.00;97188.69;4158305;28;20467;-71
2023/03/24 04:27:10;;;;;;;3.88;3.00;;;;;;;11.09;100.00;97179.66;4158067;28;20477;-71
2023/03/24 04:29:26;;;;;;;3.83;3.00;;;;;;;11.11;100.00;97195.84;4159333;28;20190;-71
2023/03/24 04:31:48;;;;;;;3.50;2.83;;;;;;;11.08;100.00;97183.59;4158822;28;20050;-71
2023/03/24 04:33:57;;;;;;;5.00;2.90;;;;;;;11.09;100.00;97176.06;4158069;28;20042;-71
2023/03/24 04:36:05;;;;;;;4.47;2.97;;;;;;;11.11;100.00;97182.78;4159018;28;20037;-71
2023/03/24 04:38:16;;;;;;;4.22;3.20;;;;;;;11.08;100.00;97171.75;4158163;28;20041;-71
2023/03/24 04:40:17;;;;;;;3.78;2.75;;;;;;;11.05;100.00;97175.34;4157977;28;20096;-71
2023/03/24 04:42:26;;;;;;;4.03;3.20;;;;;;;11.04;100.00;97163.50;4158305;28;20091;-71
2023/03/24 04:44:29;;;;;;;5.00;3.10;;;;;;;11.00;100.00;97168.25;4157363;28;20056;-71
2023/03/24 04:46:31;;;;;;;5.15;3.20;;;;;;;11.03;100.00;97155.59;4158079;28;20045;-71
2023/03/24 04:48:32;;;;;;;4.15;3.17;;;;;;;11.00;100.00;97146.13;4158472;28;20519;-71
2023/03/24 04:50:37;;;;;;;3.83;3.03;;;;;;;11.00;100.00;97150.88;4158268;28;20075;-71
2023/03/24 04:52:39;;;;;;;4.15;3.00;;;;;;;11.00;100.00;97142.56;4157636;28;20128;-71
2023/03/24 04:54:40;;;;;;;3.28;2.60;;;;;;;10.98;100.00;97146.53;4158298;28;20029;-71
2023/03/24 04:56:46;;;;;;;5.50;3.40;;;;;;;11.00;100.00;97135.06;4158277;28;20041;-71
2023/03/24 04:58:46;;;;;;;4.30;3.00;;;;;;;11.00;100.00;97137.81;4158414;28;20045;-71
2023/03/24 05:00:47;;;;;;;4.85;3.08;;;;;;;11.05;100.00;97144.91;4158859;28;20213;-71
2023/03/24 05:02:48;;;;;;;5.78;3.05;;;;;;;11.00;100.00;97153.66;4157585;28;20049;-71
2023/03/24 05:04:48;;;;;;;4.88;3.13;;;;;;;11.01;100.00;97144.94;4158218;28;20592;-71
2023/03/24 05:06:49;;;;;;;5.35;2.90;;;;;;;11.02;100.00;97152.06;4158397;28;20083;-71
2023/03/24 05:08:51;;;;;;;4.95;3.10;;;;;;;11.02;100.00;97156.81;4157832;28;20502;-71
2023/03/24 05:10:51;;;;;;;3.88;3.10;;;;;;;11.01;100.00;97147.72;4158053;28;20513;-71
2023/03/24 05:12:51;;;;;;;3.22;2.53;;;;;;;11.01;100.00;97156.03;4157852;28;20053;-71
2023/03/24 05:14:52;;;;;;;5.10;3.15;;;;;;;11.00;100.00;97162.72;4158016;28;20037;-71
2023/03/24 05:16:52;;;;;;;3.47;2.78;;;;;;;11.01;100.00;97158.00;4158282;28;20541;-71
2023/03/24 05:18:52;;;;;;;3.58;3.00;;;;;;;11.04;100.00;97157.94;4158108;28;20037;-71
2023/03/24 05:20:53;;;;;;;6.53;3.63;;;;;;;11.09;100.00;97149.22;4158155;28;20048;-71
2023/03/24 05:22:53;;;;;;;4.30;2.90;;;;;;;11.09;100.00;97154.75;4157256;28;20056;-71
2023/03/24 05:24:54;;;;;;;3.92;3.05;;;;;;;11.14;100.00;97151.50;4157886;28;20045;-71
2023/03/24 05:26:54;;;;;;;6.60;3.00;;;;;;;11.15;100.00;97153.06;4158201;28;20269;-71
2023/03/24 05:28:54;;;;;;;3.90;3.10;;;;;;;11.13;100.00;97155.47;4158081;28;20091;-71
2023/03/24 05:30:55;;;;;;;4.95;3.08;;;;;;;11.15;100.00;97146.75;4158190;28;20457;-71
2023/03/24 05:32:55;;;;;;;3.53;3.20;;;;;;;11.16;100.00;97165.72;4157831;28;20057;-71
2023/03/24 05:34:55;;;;;;;3.72;2.85;;;;;;;11.13;100.00;97163.78;4157700;28;20136;-71
2023/03/24 05:36:56;;;;;;;3.92;2.90;;;;;;;11.12;100.00;97145.59;4157843;28;20492;-71
2023/03/24 05:38:56;;;;;;;5.13;3.40;;;;;;;11.13;100.00;97158.25;4158184;28;20073;-71
2023/03/24 05:40:58;;;;;;;6.15;3.63;;;;;;;11.16;100.00;97157.41;4157703;28;20037;-71
2023/03/24 05:42:59;;;;;;;4.78;3.05;;;;;;;11.14;100.00;97150.72;4157408;28;20416;-71
2023/03/24 05:44:59;;;;;;;4.35;3.22;;;;;;;11.14;100.00;97153.47;4157513;28;20041;-71
2023/03/24 05:46:59;;;;;;;8.48;3.47;;;;;;;11.13;100.00;97152.69;4157764;28;20061;-71
2023/03/24 05:48:59;;;;;;;5.68;3.10;;;;;;;11.12;100.00;97161.44;4156460;28;20049;-71
2023/03/24 05:51:00;;;;;;;4.43;3.45;;;;;;;11.11;100.00;97160.63;4157362;28;20090;-71
2023/03/24 05:53:00;;;;;;;3.60;3.03;;;;;;;11.10;100.00;97158.28;4157180;28;20569;-71
2023/03/24 05:55:01;;;;;;;3.40;2.90;;;;;;;11.12;100.00;97172.50;4157458;28;20099;-71
2023/03/24 05:57:01;;;;;;;3.75;3.05;;;;;;;11.14;100.00;97178.41;4157685;28;20469;-71
2023/03/24 05:59:03;;;;;;;7.15;3.50;;;;;;;11.14;100.00;97183.94;4158071;28;20482;-71
2023/03/24 06:01:09;;;;;;;5.45;3.05;;;;;;;11.15;100.00;97174.44;4157936;28;20033;-71
2023/03/24 06:03:09;;;;;;;3.63;3.00;;;;;;;11.12;100.00;97176.06;4157057;28;20053;-71
2023/03/24 06:05:10;;;;;;;5.03;3.42;;;;;;;11.14;100.00;97181.16;4158012;28;20386;-71
2023/03/24 06:07:12;;;;;;;5.68;3.40;;;;;;;11.19;100.00;97167.66;4123297;28;20029;-71
2023/03/24 06:09:14;;;;;;;3.63;2.92;;;;;;;11.14;100.00;97164.56;4160223;28;20755;-71
2023/03/24 06:11:15;;;;;;;4.82;3.35;;;;;;;11.18;100.00;97179.94;4157573;28;20037;-71
2023/03/24 06:13:15;;;;;;;5.50;2.90;;;;;;;11.21;100.00;97178.31;4157013;28;20049;-71
2023/03/24 06:15:16;;;;;;;3.92;3.10;;;;;;;11.27;100.00;97181.44;4157251;28;20120;-71
2023/03/24 06:17:16;;;;;;;6.15;3.00;;;;;;;11.32;100.00;97189.25;4157967;28;20033;-71
2023/03/24 06:19:17;;;;;;;5.13;3.38;;;;;;;11.32;100.00;97180.94;4159512;28;20121;-72
2023/03/24 06:21:18;;;;;;;5.03;3.10;;;;;;;11.38;100.00;97174.53;4160136;28;20187;-72
2023/03/24 06:23:18;;;;;;;3.92;2.80;;;;;;;11.39;100.00;97191.94;4160520;28;20124;-72
2023/03/24 06:25:20;;;;;;;5.30;2.90;;;;;;;11.35;100.00;97171.84;4191823;28;20041;-72
2023/03/24 06:27:24;;;;;;;5.47;3.60;;;;;;;11.35;100.00;97163.53;4160671;28;20144;-71
2023/03/24 06:29:24;;;;;;;3.38;2.75;;;;;;;11.31;100.00;97163.56;4159647;28;20486;-71
2023/03/24 06:31:26;;;;;;;3.53;2.45;;;;;;;11.32;100.00;97153.25;4160968;28;20111;-71
2023/03/24 06:33:26;;;;;;;3.90;2.80;;;;;;;11.27;100.00;97148.97;4160540;28;20403;-72
2023/03/24 06:35:27;;;;;;;5.25;2.75;;;;;;;11.31;100.00;97148.94;4160523;28;20185;-71
2023/03/24 06:37:27;;;;;;;3.67;2.83;;;;;;;11.28;100.00;97128.41;4160129;28;20501;-71
2023/03/24 06:39:27;;;;;;;5.32;2.97;;;;;;;11.30;100.00;97130.75;4161424;28;20044;-71
2023/03/24 06:41:28;;;;;;;4.35;3.05;;;;;;;11.32;100.00;97129.13;4160362;28;20393;-71
2023/03/24 06:43:28;;;;;;;4.38;2.60;;;;;;;11.33;100.00;97150.06;4160038;28;20044;-71
2023/03/24 06:45:29;;;;;;;3.55;2.33;;;;;;;11.34;100.00;97142.56;4160372;28;20052;-71
2023/03/24 06:47:29;;;;;;;3.22;2.15;;;;;;;11.38;100.00;97143.31;4159987;28;20052;-71
2023/03/24 06:49:30;;;;;;;2.92;2.20;;;;;;;11.34;100.00;97140.59;4160386;28;20076;-71
2023/03/24 06:51:32;;;;;;;3.58;2.30;;;;;;;11.34;100.00;97148.91;4159657;28;20053;-71
2023/03/24 06:53:33;;;;;;;2.53;2.17;;;;;;;11.33;100.00;97150.06;4160030;28;20123;-72
2023/03/24 06:55:33;;;;;;;2.33;1.73;;;;;;;11.37;100.00;97130.66;4160407;28;20068;-71
2023/03/24 06:57:33;;;;;;;3.20;2.20;;;;;;;11.36;100.00;97127.09;4160117;28;20041;-71
2023/03/24 06:59:34;;;;;;;3.13;2.00;;;;;;;11.38;100.00;97119.16;4160880;28;20057;-71
2023/03/24 07:01:35;;;;;;;3.10;1.85;;;;;;;11.42;100.00;97135.72;4159991;28;20124;-71
2023/03/24 07:03:37;;;;;;;2.70;1.80;;;;;;;11.42;100.00;97133.75;4159550;28;20037;-71
2023/03/24 07:05:39;;;;;;;2.25;1.65;;;;;;;11.45;100.00;97149.53;4160228;28;20045;-71
2023/03/24 07:07:40;;;;;;;3.78;2.13;;;;;;;11.46;100.00;97155.84;4160018;28;20038;-71
2023/03/24 07:09:40;;;;;;;2.85;1.80;;;;;;;11.46;100.00;97153.88;4159946;28;20130;-71
2023/03/24 07:11:41;;;;;;;3.05;1.95;;;;;;;11.48;100.00;97159.00;4160201;28;20429;-71
2023/03/24 07:13:41;;;;;;;3.92;1.95;;;;;;;11.48;100.00;97162.53;4159639;28;20076;-71
2023/03/24 07:15:42;;;;;;;1.92;1.63;;;;;;;11.50;100.00;97153.81;4160038;28;20080;-71
2023/03/24 07:17:42;;;;;;;2.38;1.88;;;;;;;11.49;100.00;97150.25;4159681;28;20095;-71
2023/03/24 07:19:44;;;;;;;1.98;1.52;;;;;;;11.56;100.00;97166.00;4159537;28;20037;-72
2023/03/24 07:21:48;;;;;;;1.92;1.50;;;;;;;11.58;100.00;97160.81;4160344;28;20171;-71
2023/03/24 07:23:49;;;;;;;2.95;1.60;;;;;;;11.65;100.00;97151.63;4159580;28;20045;-71
2023/03/24 07:25:50;;;;;;;2.00;1.60;;;;;;;11.61;100.00;97146.16;4159988;28;20054;-71
2023/03/24 07:27:56;;;;;;;2.42;1.80;;;;;;;11.64;100.00;97153.63;4159913;28;20482;-71
2023/03/24 07:29:57;;;;;;;2.65;2.00;;;;;;;11.70;100.00;97160.28;4158262;28;20386;-71
2023/03/24 07:31:57;;;;;;;4.05;1.50;;;;;;;11.68;100.00;97176.53;4159956;28;20052;-71
2023/03/24 07:33:57;;;;;;;1.98;1.30;;;;;;;11.72;100.00;97188.34;4159118;28;20045;-71
2023/03/24 07:35:58;;;;;;;2.10;1.58;;;;;;;11.78;100.00;97174.81;4159743;28;20155;-71
2023/03/24 07:38:00;;;;;;;1.70;1.35;;;;;;;11.80;100.00;97173.22;4159977;28;20050;-71
2023/03/24 07:40:00;;;;;;;2.72;1.60;;;;;;;11.83;100.00;97171.59;4159603;28;20037;-71
2023/03/24 07:42:00;;;;;;;3.83;1.88;;;;;;;11.88;100.00;97175.88;4159435;28;20045;-71
2023/03/24 07:44:01;;;;;;;2.20;1.55;;;;;;;11.89;100.00;97171.91;4158793;28;20045;-71
2023/03/24 07:46:01;;;;;;;2.78;1.73;;;;;;;11.88;100.00;97168.34;4159787;28;20063;-71
2023/03/24 07:48:02;;;;;;;2.05;1.60;;;;;;;11.91;100.00;97170.28;4159665;28;20033;-71
2023/03/24 07:50:08;;;;;;;2.35;1.55;;;;;;;11.98;100.00;97180.47;4158981;28;20037;-72
2023/03/24 07:52:08;;;;;;;1.92;1.40;;;;;;;11.91;100.00;97181.38;4159094;28;20041;-71
2023/03/24 07:54:09;;;;;;;2.28;1.63;;;;;;;11.99;100.00;97182.84;4159608;28;20391;-72
2023/03/24 07:56:09;;;;;;;2.25;1.70;;;;;;;12.04;100.00;97179.59;4159402;28;20030;-72
2023/03/24 07:58:10;;;;;;;2.60;1.98;;;;;;;12.02;100.00;97184.00;4159339;28;20307;-72
2023/03/24 08:00:14;;;;;;;2.35;1.70;;;;;;;12.04;100.00;97178.81;4159323;28;20025;-71
2023/03/24 08:02:19;;;;;;;2.42;1.73;;;;;;;12.12;100.00;97190.59;4158355;28;20030;-71
2023/03/24 08:04:19;;;;;;;3.17;1.60;;;;;;;12.16;100.00;97183.75;4158362;28;20036;-71
2023/03/24 08:06:20;;;;;;;1.90;1.52;;;;;;;12.20;100.00;97201.16;4159365;28;20033;-71
2023/03/24 08:08:20;;;;;;;2.88;1.70;;;;;;;12.34;100.00;97194.59;4159269;28;20048;-71
2023/03/24 08:10:24;;;;;;;2.92;1.58;;;;;;;12.51;100.00;97218.50;4159337;28;20133;-71
2023/03/24 08:12:24;;;;;;;2.88;1.67;;;;;;;12.67;100.00;97194.84;4159029;28;20338;-71
2023/03/24 08:14:25;;;;;;;2.45;1.90;;;;;;;12.78;100.00;97203.78;4158808;28;20478;-72
2023/03/24 08:16:25;;;;;;;1.95;1.75;;;;;;;12.83;100.00;97201.31;4159185;28;20647;-72
2023/03/24 08:18:25;;;;;;;2.33;1.63;;;;;;;12.88;100.00;97206.34;4158970;28;20131;-71
2023/03/24 08:20:28;;;;;;;5.22;1.63;;;;;;;12.90;100.00;97205.91;4158981;28;20045;-72
2023/03/24 08:22:28;;;;;;;1.85;1.65;;;;;;;12.96;100.00;97204.22;4157254;28;20045;-71
2023/03/24 08:24:28;;;;;;;2.03;1.60;;;;;;;12.99;100.00;97197.03;4158263;28;20037;-72
2023/03/24 08:26:29;;;;;;;1.95;1.75;;;;;;;13.00;100.00;97199.41;4158426;28;20107;-71
2023/03/24 08:28:30;;;;;;;2.20;1.60;;;;;;;13.07;100.00;97206.81;4158978;28;20037;-71
2023/03/24 08:30:30;;;;;;;2.00;1.80;;;;;;;13.07;100.00;97209.56;4159009;28;20069;-72
2023/03/24 08:32:30;;;;;;;2.45;1.88;;;;;;;13.06;100.00;97211.56;4158099;28;20037;-72
2023/03/24 08:34:31;;;;;;;1.83;1.58;;;;;;;13.09;100.00;97224.63;4159169;28;20041;-72
2023/03/24 08:36:31;;;;;;;2.33;1.63;;;;;;;13.17;100.00;97219.72;4158920;28;20053;-72
2023/03/24 08:38:32;;;;;;;1.92;1.70;;;;;;;13.14;100.00;97231.66;4159254;28;20484;-72
2023/03/24 08:40:33;;;;;;;2.25;1.90;;;;;;;13.18;98.62;97222.06;4158791;28;20114;-72
2023/03/24 08:42:33;;;;;;;1.90;1.60;;;;;;;13.23;99.15;97225.56;4157475;28;20462;-71
2023/03/24 08:44:34;;;;;;;2.15;1.60;;;;;;;13.26;98.75;97228.31;4158980;28;20220;-71
2023/03/24 08:46:34;;;;;;;2.38;1.67;;;;;;;13.35;97.23;97231.31;4158575;28;20048;-72
2023/03/24 08:48:36;;;;;;;1.92;1.70;;;;;;;13.41;98.46;97229.59;4157496;28;20033;-72
2023/03/24 08:50:39;;;;;;;3.72;1.90;;;;;;;13.55;98.93;97233.28;4158653;28;20038;-72
2023/03/24 08:52:40;;;;;;;2.05;1.67;;;;;;;13.54;97.23;97228.94;4158161;28;20148;-72
2023/03/24 08:54:41;;;;;;;3.55;1.52;;;;;;;13.54;96.96;97218.63;4158498;28;20095;-72
2023/03/24 08:56:41;;;;;;;3.70;1.60;;;;;;;13.55;98.03;97213.84;4158535;28;20413;-72
2023/03/24 08:58:41;;;;;;;1.83;1.50;;;;;;;13.43;96.66;97215.28;4158607;28;20077;-72
2023/03/24 09:00:43;;;;;;;1.65;1.50;;;;;;;13.47;96.91;97219.53;4158260;28;20121;-73
2023/03/24 09:02:45;;;;;;;3.90;2.60;;;;;;;13.47;96.96;97227.88;4157430;28;20382;-72
2023/03/24 09:04:45;;;;;;;1.77;1.40;;;;;;;13.51;96.20;97218.69;4158294;28;20132;-71
2023/03/24 09:06:46;;;;;;;1.83;1.50;;;;;;;13.59;97.12;97220.91;4158755;28;20084;-71
2023/03/24 09:08:46;;;;;;;4.00;1.70;;;;;;;13.65;97.22;97233.09;4158213;28;20041;-72
2023/03/24 09:10:46;;;;;;;3.47;1.70;;;;;;;13.64;97.40;97225.94;4158285;28;20036;-72
2023/03/24 09:12:47;;;;;;;1.50;1.40;;;;;;;13.68;96.21;97206.44;4158095;28;20312;-72
2023/03/24 09:14:48;;;;;;;1.40;1.30;;;;;;;13.68;96.14;97221.09;4157773;28;20037;-72
2023/03/24 09:16:49;;;;;;;1.70;1.30;;;;;;;13.71;96.75;97219.47;4158020;28;20041;-72
2023/03/24 09:18:50;;;;;;;1.73;1.45;;;;;;;13.75;95.35;97220.19;4158203;28;20429;-72
2023/03/24 09:20:50;;;;;;;2.58;1.40;;;;;;;13.76;95.75;97216.19;4158465;28;20543;-72
2023/03/24 09:22:51;;;;;;;1.77;1.40;;;;;;;13.83;95.05;97218.03;4157282;28;20088;-72
2023/03/24 09:24:51;;;;;;;1.77;1.30;;;;;;;13.85;94.52;97229.50;4158151;28;20151;-72
2023/03/24 09:26:51;;;;;;;2.15;1.50;;;;;;;13.85;94.79;97218.38;4158251;28;20557;-72
2023/03/24 09:28:52;;;;;;;2.05;1.42;;;;;;;13.90;94.53;97223.41;4157919;28;20037;-72
2023/03/24 09:30:58;;;;;;;1.88;1.42;;;;;;;13.94;94.53;97221.34;4157433;28;20940;-72
2023/03/24 09:32:58;;;;;;;2.25;1.60;;;;;;;13.95;93.02;97218.13;4157510;28;20434;-71
2023/03/24 09:35:00;;;;;;;1.65;1.23;;;;;;;13.91;93.38;97217.44;4158127;28;20128;-72
2023/03/24 09:37:00;;;;;;;2.13;1.38;;;;;;;13.82;93.92;97216.44;4158301;28;20036;-72